createdAt,value
2022-09-10T00:00:12.000Z,13.55
2022-09-10T00:01:12.000Z,13.55
2022-09-10T00:02:12.000Z,13.56
2022-09-10T00:03:12.000Z,13.52
2022-09-10T00:04:12.000Z,13.56
2022-09-10T00:05:12.000Z,13.52
2022-09-10T00:06:12.000Z,13.54
2022-09-10T00:07:13.000Z,13.56
2022-09-10T00:08:13.000Z,13.58
2022-09-10T00:09:13.000Z,13.54
2022-09-10T00:10:13.000Z,13.56
2022-09-10T00:11:13.000Z,13.54
2022-09-10T00:12:13.000Z,13.54
2022-09-10T00:13:13.000Z,13.52
2022-09-10T00:14:13.000Z,13.54
2022-09-10T00:15:13.000Z,13.55
2022-09-10T00:16:13.000Z,13.55
2022-09-10T00:17:13.000Z,13.54
2022-09-10T00:18:13.000Z,13.58
2022-09-10T00:19:13.000Z,13.54
2022-09-10T00:20:13.000Z,13.58
2022-09-10T00:21:13.000Z,13.56
2022-09-10T00:22:13.000Z,13.58
2022-09-10T00:23:13.000Z,13.59
2022-09-10T00:24:13.000Z,13.61
2022-09-10T00:25:13.000Z,13.62
2022-09-10T00:26:13.000Z,13.63
2022-09-10T00:27:13.000Z,13.69
2022-09-10T00:28:13.000Z,13.76
2022-09-10T00:29:13.000Z,13.81
2022-09-10T00:30:13.000Z,13.89
2022-09-10T00:31:13.000Z,13.95
2022-09-10T00:32:13.000Z,13.98
2022-09-10T00:33:13.000Z,14.01
2022-09-10T00:34:13.000Z,14.01
2022-09-10T00:35:13.000Z,14.04
2022-09-10T00:36:13.000Z,14.12
2022-09-10T00:37:14.000Z,14.13
2022-09-10T00:38:14.000Z,14.19
2022-09-10T00:39:14.000Z,14.16
2022-09-10T00:40:14.000Z,14.19
2022-09-10T00:41:14.000Z,14.24
2022-09-10T00:42:14.000Z,14.21
2022-09-10T00:43:14.000Z,14.24
2022-09-10T00:44:14.000Z,14.20
2022-09-10T00:45:14.000Z,14.21
2022-09-10T00:46:14.000Z,14.20
2022-09-10T00:47:14.000Z,14.21
2022-09-10T00:48:14.000Z,14.20
2022-09-10T00:49:14.000Z,14.25
2022-09-10T00:50:14.000Z,14.25
2022-09-10T00:51:14.000Z,14.29
2022-09-10T00:52:14.000Z,14.27
2022-09-10T00:53:14.000Z,14.29
2022-09-10T00:54:14.000Z,14.21
2022-09-10T00:55:14.000Z,14.20
2022-09-10T00:56:14.000Z,14.20
2022-09-10T00:57:14.000Z,14.20
2022-09-10T00:58:14.000Z,14.16
2022-09-10T00:59:14.000Z,14.13
2022-09-10T01:00:14.000Z,14.13
2022-09-10T01:01:14.000Z,14.10
2022-09-10T01:02:14.000Z,14.06
2022-09-10T01:03:14.000Z,14.10
2022-09-10T01:04:14.000Z,14.09
2022-09-10T01:05:14.000Z,14.07
2022-09-10T01:06:14.000Z,14.06
2022-09-10T01:07:14.000Z,14.07
2022-09-10T01:08:14.000Z,14.04
2022-09-10T01:09:14.000Z,14.04
2022-09-10T01:10:14.000Z,14.04
2022-09-10T01:11:14.000Z,14.02
2022-09-10T01:12:14.000Z,13.99
2022-09-10T01:13:14.000Z,13.96
2022-09-10T01:14:15.000Z,13.96
2022-09-10T01:15:15.000Z,13.94
2022-09-10T01:16:15.000Z,13.91
2022-09-10T01:17:15.000Z,13.92
2022-09-10T01:18:15.000Z,13.89
2022-09-10T01:19:15.000Z,13.88
2022-09-10T01:20:15.000Z,13.81
2022-09-10T01:21:15.000Z,13.84
2022-09-10T01:22:15.000Z,13.81
2022-09-10T01:23:15.000Z,13.77
2022-09-10T01:24:15.000Z,13.79
2022-09-10T01:25:15.000Z,13.83
2022-09-10T01:26:15.000Z,13.84
2022-09-10T01:27:15.000Z,13.84
2022-09-10T01:28:15.000Z,13.84
2022-09-10T01:29:15.000Z,13.84
2022-09-10T01:30:15.000Z,13.84
2022-09-10T01:31:15.000Z,13.83
2022-09-10T01:32:15.000Z,13.81
2022-09-10T01:33:15.000Z,13.79
2022-09-10T01:34:15.000Z,13.81
2022-09-10T01:35:15.000Z,13.81
2022-09-10T01:36:15.000Z,13.77
2022-09-10T01:37:15.000Z,13.79
2022-09-10T01:38:15.000Z,13.76
2022-09-10T01:39:15.000Z,13.70
2022-09-10T01:40:15.000Z,13.73
2022-09-10T01:41:15.000Z,13.67
2022-09-10T01:42:15.000Z,13.63
2022-09-10T01:43:15.000Z,13.63
2022-09-10T01:44:15.000Z,13.62
2022-09-10T01:45:15.000Z,13.59
2022-09-10T01:46:15.000Z,13.62
2022-09-10T01:47:15.000Z,13.61
2022-09-10T01:48:15.000Z,13.65
2022-09-10T01:49:15.000Z,13.63
2022-09-10T01:50:15.000Z,13.67
2022-09-10T01:51:15.000Z,13.73
2022-09-10T01:52:16.000Z,13.65
2022-09-10T01:53:16.000Z,13.67
2022-09-10T01:54:16.000Z,13.70
2022-09-10T01:55:16.000Z,13.70
2022-09-10T01:56:16.000Z,13.65
2022-09-10T01:57:16.000Z,13.65
2022-09-10T01:58:16.000Z,13.62
2022-09-10T01:59:16.000Z,13.62
2022-09-10T02:00:16.000Z,13.56
2022-09-10T02:01:16.000Z,13.54
2022-09-10T02:02:16.000Z,13.51
2022-09-10T02:03:16.000Z,13.47
2022-09-10T02:04:16.000Z,13.51
2022-09-10T02:05:16.000Z,13.44
2022-09-10T02:06:16.000Z,13.44
2022-09-10T02:07:16.000Z,13.49
2022-09-10T02:08:16.000Z,13.51
2022-09-10T02:09:16.000Z,13.49
2022-09-10T02:10:16.000Z,13.51
2022-09-10T02:11:16.000Z,13.49
2022-09-10T02:12:16.000Z,13.51
2022-09-10T02:13:16.000Z,13.46
2022-09-10T02:14:16.000Z,13.49
2022-09-10T02:15:16.000Z,13.46
2022-09-10T02:16:16.000Z,13.46
2022-09-10T02:17:16.000Z,13.47
2022-09-10T02:18:16.000Z,13.49
2022-09-10T02:19:16.000Z,13.47
2022-09-10T02:20:16.000Z,13.49
2022-09-10T02:21:16.000Z,13.44
2022-09-10T02:22:16.000Z,13.43
2022-09-10T02:23:16.000Z,13.41
2022-09-10T02:24:16.000Z,13.37
2022-09-10T02:25:16.000Z,13.41
2022-09-10T02:26:16.000Z,13.38
2022-09-10T02:27:16.000Z,13.33
2022-09-10T02:28:17.000Z,13.32
2022-09-10T02:29:17.000Z,13.30
2022-09-10T02:30:17.000Z,13.30
2022-09-10T02:31:17.000Z,13.30
2022-09-10T02:32:17.000Z,13.30
2022-09-10T02:33:17.000Z,13.29
2022-09-10T02:34:17.000Z,13.27
2022-09-10T02:35:17.000Z,13.27
2022-09-10T02:36:17.000Z,13.25
2022-09-10T02:37:17.000Z,13.22
2022-09-10T02:38:17.000Z,13.20
2022-09-10T02:39:17.000Z,13.18
2022-09-10T02:40:17.000Z,13.20
2022-09-10T02:41:17.000Z,13.17
2022-09-10T02:42:17.000Z,13.14
2022-09-10T02:43:17.000Z,13.12
2022-09-10T02:44:17.000Z,13.09
2022-09-10T02:45:17.000Z,13.06
2022-09-10T02:46:17.000Z,13.03
2022-09-10T02:47:17.000Z,13.04
2022-09-10T02:48:17.000Z,13.04
2022-09-10T02:49:17.000Z,13.00
2022-09-10T02:50:17.000Z,13.02
2022-09-10T02:51:17.000Z,12.99
2022-09-10T02:52:17.000Z,12.96
2022-09-10T02:53:17.000Z,12.96
2022-09-10T02:54:17.000Z,12.99
2022-09-10T02:55:17.000Z,12.95
2022-09-10T02:56:17.000Z,12.96
2022-09-10T02:57:17.000Z,12.97
2022-09-10T02:58:17.000Z,13.00
2022-09-10T02:59:17.000Z,13.02
2022-09-10T03:00:17.000Z,13.00
2022-09-10T03:01:18.000Z,13.04
2022-09-10T03:02:18.000Z,13.04
2022-09-10T03:03:18.000Z,13.03
2022-09-10T03:04:18.000Z,13.03
2022-09-10T03:05:18.000Z,13.07
2022-09-10T03:06:18.000Z,13.04
2022-09-10T03:07:18.000Z,13.06
2022-09-10T03:08:18.000Z,13.06
2022-09-10T03:09:18.000Z,13.07
2022-09-10T03:10:18.000Z,13.12
2022-09-10T03:11:18.000Z,13.17
2022-09-10T03:12:18.000Z,13.15
2022-09-10T03:13:18.000Z,13.15
2022-09-10T03:14:18.000Z,13.12
2022-09-10T03:15:18.000Z,13.15
2022-09-10T03:16:18.000Z,13.14
2022-09-10T03:17:18.000Z,13.11
2022-09-10T03:18:18.000Z,13.12
2022-09-10T03:19:18.000Z,13.15
2022-09-10T03:20:18.000Z,13.12
2022-09-10T03:21:18.000Z,13.14
2022-09-10T03:22:18.000Z,13.14
2022-09-10T03:23:18.000Z,13.14
2022-09-10T03:24:18.000Z,13.11
2022-09-10T03:25:18.000Z,13.15
2022-09-10T03:26:18.000Z,13.12
2022-09-10T03:27:18.000Z,13.09
2022-09-10T03:28:18.000Z,13.12
2022-09-10T03:29:18.000Z,13.04
2022-09-10T03:30:18.000Z,13.03
2022-09-10T03:31:18.000Z,13.03
2022-09-10T03:32:18.000Z,13.02
2022-09-10T03:33:19.000Z,13.02
2022-09-10T03:34:19.000Z,13.00
2022-09-10T03:35:19.000Z,12.97
2022-09-10T03:36:19.000Z,12.95
2022-09-10T03:37:19.000Z,12.96
2022-09-10T03:38:19.000Z,12.95
2022-09-10T03:39:19.000Z,12.95
2022-09-10T03:40:19.000Z,12.93
2022-09-10T03:41:19.000Z,12.96
2022-09-10T03:42:19.000Z,12.97
2022-09-10T03:43:19.000Z,12.95
2022-09-10T03:44:19.000Z,12.95
2022-09-10T03:45:19.000Z,12.93
2022-09-10T03:46:19.000Z,12.93
2022-09-10T03:47:19.000Z,12.95
2022-09-10T03:48:19.000Z,12.96
2022-09-10T03:49:19.000Z,12.95
2022-09-10T03:50:19.000Z,12.96
2022-09-10T03:51:19.000Z,12.93
2022-09-10T03:52:19.000Z,12.92
2022-09-10T03:53:19.000Z,12.95
2022-09-10T03:54:19.000Z,12.93
2022-09-10T03:55:19.000Z,12.89
2022-09-10T03:56:19.000Z,12.92
2022-09-10T03:57:19.000Z,12.92
2022-09-10T03:58:19.000Z,12.95
2022-09-10T03:59:19.000Z,12.92
2022-09-10T04:00:19.000Z,12.92
2022-09-10T04:01:19.000Z,12.92
2022-09-10T04:02:19.000Z,12.89
2022-09-10T04:03:19.000Z,12.89
2022-09-10T04:04:20.000Z,12.88
2022-09-10T04:05:20.000Z,12.88
2022-09-10T04:06:20.000Z,12.93
2022-09-10T04:07:20.000Z,12.92
2022-09-10T04:08:20.000Z,12.93
2022-09-10T04:09:20.000Z,12.95
2022-09-10T04:10:20.000Z,12.93
2022-09-10T04:11:20.000Z,12.95
2022-09-10T04:12:20.000Z,12.93
2022-09-10T04:13:20.000Z,12.96
2022-09-10T04:14:20.000Z,12.93
2022-09-10T04:15:20.000Z,12.96
2022-09-10T04:16:20.000Z,12.96
2022-09-10T04:17:20.000Z,12.95
2022-09-10T04:18:20.000Z,12.93
2022-09-10T04:19:20.000Z,12.93
2022-09-10T04:20:20.000Z,12.92
2022-09-10T04:21:20.000Z,12.93
2022-09-10T04:22:20.000Z,12.93
2022-09-10T04:23:20.000Z,12.92
2022-09-10T04:24:20.000Z,12.95
2022-09-10T04:25:20.000Z,12.95
2022-09-10T04:26:20.000Z,12.92
2022-09-10T04:27:20.000Z,12.89
2022-09-10T04:28:20.000Z,12.87
2022-09-10T04:29:20.000Z,12.89
2022-09-10T04:30:20.000Z,12.88
2022-09-10T04:31:20.000Z,12.87
2022-09-10T04:32:28.000Z,12.87
2022-09-10T04:33:21.000Z,12.85
2022-09-10T04:34:21.000Z,12.82
2022-09-10T04:35:21.000Z,12.87
2022-09-10T04:36:21.000Z,12.84
2022-09-10T04:37:21.000Z,12.82
2022-09-10T04:38:21.000Z,12.81
2022-09-10T04:39:21.000Z,12.81
2022-09-10T04:40:21.000Z,12.78
2022-09-10T04:41:21.000Z,12.81
2022-09-10T04:42:21.000Z,12.79
2022-09-10T04:43:21.000Z,12.75
2022-09-10T04:44:21.000Z,12.75
2022-09-10T04:45:21.000Z,12.69
2022-09-10T04:46:21.000Z,12.70
2022-09-10T04:47:21.000Z,12.69
2022-09-10T04:48:21.000Z,12.67
2022-09-10T04:49:21.000Z,12.66
2022-09-10T04:50:21.000Z,12.67
2022-09-10T04:51:21.000Z,12.67
2022-09-10T04:52:21.000Z,12.67
2022-09-10T04:53:21.000Z,12.64
2022-09-10T04:54:21.000Z,12.64
2022-09-10T04:55:21.000Z,12.66
2022-09-10T04:56:22.000Z,12.66
2022-09-10T04:57:22.000Z,12.66
2022-09-10T04:58:22.000Z,12.66
2022-09-10T04:59:22.000Z,12.69
2022-09-10T05:00:22.000Z,12.71
2022-09-10T05:01:22.000Z,12.67
2022-09-10T05:02:22.000Z,12.71
2022-09-10T05:03:22.000Z,12.70
2022-09-10T05:04:22.000Z,12.74
2022-09-10T05:05:22.000Z,12.78
2022-09-10T05:06:22.000Z,12.78
2022-09-10T05:07:22.000Z,12.82
2022-09-10T05:08:22.000Z,12.81
2022-09-10T05:09:22.000Z,12.85
2022-09-10T05:10:22.000Z,12.89
2022-09-10T05:11:22.000Z,12.93
2022-09-10T05:12:22.000Z,12.95
2022-09-10T05:13:22.000Z,12.99
2022-09-10T05:14:22.000Z,13.03
2022-09-10T05:15:22.000Z,13.07
2022-09-10T05:16:22.000Z,13.07
2022-09-10T05:17:22.000Z,13.14
2022-09-10T05:17:22.000Z,13.14
2022-09-10T05:18:22.000Z,13.18
2022-09-10T05:18:22.000Z,13.18
2022-09-10T05:19:23.000Z,13.22
2022-09-10T05:19:23.000Z,13.22
2022-09-10T05:20:23.000Z,13.25
2022-09-10T05:20:23.000Z,13.25
2022-09-10T05:21:23.000Z,13.33
2022-09-10T05:21:23.000Z,13.33
2022-09-10T05:22:23.000Z,13.40
2022-09-10T05:23:23.000Z,13.47
2022-09-10T05:24:23.000Z,13.49
2022-09-10T05:25:23.000Z,13.52
2022-09-10T05:26:23.000Z,13.61
2022-09-10T05:27:23.000Z,13.59
2022-09-10T05:28:23.000Z,13.69
2022-09-10T05:29:23.000Z,13.69
2022-09-10T05:30:23.000Z,13.74
2022-09-10T05:31:23.000Z,13.77
2022-09-10T05:32:23.000Z,13.81
2022-09-10T05:33:23.000Z,13.88
2022-09-10T05:34:23.000Z,13.91
2022-09-10T05:35:23.000Z,13.98
2022-09-10T05:36:23.000Z,14.04
2022-09-10T05:37:23.000Z,14.12
2022-09-10T05:38:23.000Z,14.21
2022-09-10T05:39:23.000Z,14.28
2022-09-10T05:40:23.000Z,14.32
2022-09-10T05:41:23.000Z,14.42
2022-09-10T05:42:23.000Z,14.52
2022-09-10T05:43:23.000Z,14.53
2022-09-10T05:44:23.000Z,14.62
2022-09-10T05:45:23.000Z,14.67
2022-09-10T05:46:23.000Z,14.72
2022-09-10T05:47:23.000Z,14.78
2022-09-10T05:48:23.000Z,14.86
2022-09-10T05:49:23.000Z,14.91
2022-09-10T05:50:23.000Z,14.99
2022-09-10T05:51:23.000Z,15.01
2022-09-10T05:52:23.000Z,15.05
2022-09-10T05:53:23.000Z,15.09
2022-09-10T05:54:23.000Z,15.19
2022-09-10T05:55:23.000Z,15.20
2022-09-10T05:56:23.000Z,15.23
2022-09-10T05:57:23.000Z,15.28
2022-09-10T05:58:23.000Z,15.35
2022-09-10T05:59:23.000Z,15.39
2022-09-10T06:00:23.000Z,15.42
2022-09-10T06:01:23.000Z,15.46
2022-09-10T06:02:24.000Z,15.48
2022-09-10T06:03:24.000Z,15.49
2022-09-10T06:04:24.000Z,15.54
2022-09-10T06:05:24.000Z,15.57
2022-09-10T06:06:24.000Z,15.60
2022-09-10T06:07:24.000Z,15.60
2022-09-10T06:08:24.000Z,15.64
2022-09-10T06:09:24.000Z,15.66
2022-09-10T06:10:24.000Z,15.64
2022-09-10T06:11:24.000Z,15.67
2022-09-10T06:12:24.000Z,15.66
2022-09-10T06:13:24.000Z,15.67
2022-09-10T06:14:24.000Z,15.70
2022-09-10T06:15:24.000Z,15.72
2022-09-10T06:16:24.000Z,15.72
2022-09-10T06:17:24.000Z,15.74
2022-09-10T06:18:24.000Z,15.72
2022-09-10T06:19:24.000Z,15.74
2022-09-10T06:20:24.000Z,15.74
2022-09-10T06:21:24.000Z,15.74
2022-09-10T06:22:24.000Z,15.76
2022-09-10T06:23:24.000Z,15.75
2022-09-10T06:24:24.000Z,15.76
2022-09-10T06:25:24.000Z,15.76
2022-09-10T06:26:24.000Z,15.79
2022-09-10T06:27:24.000Z,15.79
2022-09-10T06:28:24.000Z,15.78
2022-09-10T06:29:24.000Z,15.78
2022-09-10T06:30:24.000Z,15.81
2022-09-10T06:31:24.000Z,15.82
2022-09-10T06:32:24.000Z,15.84
2022-09-10T06:33:24.000Z,15.85
2022-09-10T06:34:24.000Z,15.93
2022-09-10T06:35:24.000Z,15.93
2022-09-10T06:36:24.000Z,15.97
2022-09-10T06:37:24.000Z,15.99
2022-09-10T06:38:24.000Z,16.01
2022-09-10T06:39:24.000Z,16.00
2022-09-10T06:40:24.000Z,16.06
2022-09-10T06:41:24.000Z,16.11
2022-09-10T06:42:24.000Z,16.15
2022-09-10T06:43:24.000Z,16.15
2022-09-10T06:44:24.000Z,16.16
2022-09-10T06:45:24.000Z,16.22
2022-09-10T06:46:24.000Z,16.23
2022-09-10T06:47:24.000Z,16.25
2022-09-10T06:48:24.000Z,16.26
2022-09-10T06:49:24.000Z,16.30
2022-09-10T06:50:24.000Z,16.35
2022-09-10T06:51:24.000Z,16.38
2022-09-10T06:52:24.000Z,16.40
2022-09-10T06:53:24.000Z,16.50
2022-09-10T06:54:24.000Z,16.52
2022-09-10T06:55:24.000Z,16.60
2022-09-10T06:56:24.000Z,16.59
2022-09-10T06:57:24.000Z,16.63
2022-09-10T06:58:24.000Z,16.68
2022-09-10T06:59:24.000Z,16.73
2022-09-10T07:00:24.000Z,16.78
2022-09-10T07:01:24.000Z,16.85
2022-09-10T07:02:24.000Z,16.90
2022-09-10T07:03:24.000Z,16.92
2022-09-10T07:04:24.000Z,16.93
2022-09-10T07:05:24.000Z,16.98
2022-09-10T07:06:24.000Z,16.98
2022-09-10T07:07:24.000Z,17.04
2022-09-10T07:08:24.000Z,16.99
2022-09-10T07:09:24.000Z,17.03
2022-09-10T07:10:24.000Z,17.00
2022-09-10T07:11:24.000Z,17.03
2022-09-10T07:12:24.000Z,17.04
2022-09-10T07:13:24.000Z,17.11
2022-09-10T07:14:24.000Z,17.15
2022-09-10T07:15:24.000Z,17.14
2022-09-10T07:16:24.000Z,17.20
2022-09-10T07:17:24.000Z,17.32
2022-09-10T07:18:24.000Z,17.35
2022-09-10T07:19:24.000Z,17.46
2022-09-10T07:20:24.000Z,17.54
2022-09-10T07:21:24.000Z,17.57
2022-09-10T07:22:24.000Z,17.63
2022-09-10T07:23:24.000Z,17.67
2022-09-10T07:24:24.000Z,17.73
2022-09-10T07:25:23.000Z,17.74
2022-09-10T07:26:23.000Z,17.78
2022-09-10T07:27:23.000Z,17.85
2022-09-10T07:28:23.000Z,17.88
2022-09-10T07:29:23.000Z,17.92
2022-09-10T07:30:23.000Z,17.95
2022-09-10T07:31:23.000Z,17.88
2022-09-10T07:32:23.000Z,17.88
2022-09-10T07:33:23.000Z,17.89
2022-09-10T07:34:23.000Z,17.87
2022-09-10T07:35:23.000Z,17.84
2022-09-10T07:36:23.000Z,17.82
2022-09-10T07:37:23.000Z,17.79
2022-09-10T07:38:23.000Z,17.82
2022-09-10T07:39:23.000Z,17.85
2022-09-10T07:40:23.000Z,17.82
2022-09-10T07:41:23.000Z,17.87
2022-09-10T07:42:23.000Z,17.91
2022-09-10T07:43:23.000Z,17.92
2022-09-10T07:44:23.000Z,17.91
2022-09-10T07:45:23.000Z,17.92
2022-09-10T07:46:23.000Z,17.97
2022-09-10T07:47:23.000Z,17.95
2022-09-10T07:48:23.000Z,17.91
2022-09-10T07:49:23.000Z,17.91
2022-09-10T07:50:23.000Z,17.87
2022-09-10T07:51:23.000Z,17.79
2022-09-10T07:52:23.000Z,17.74
2022-09-10T07:53:23.000Z,17.73
2022-09-10T07:54:23.000Z,17.70
2022-09-10T07:55:23.000Z,17.69
2022-09-10T07:56:23.000Z,17.69
2022-09-10T07:57:23.000Z,17.69
2022-09-10T07:58:23.000Z,17.70
2022-09-10T07:59:23.000Z,17.76
2022-09-10T08:00:23.000Z,17.74
2022-09-10T08:01:23.000Z,17.73
2022-09-10T08:02:23.000Z,17.76
2022-09-10T08:03:23.000Z,17.71
2022-09-10T08:04:23.000Z,17.69
2022-09-10T08:05:23.000Z,17.70
2022-09-10T08:06:23.000Z,17.73
2022-09-10T08:07:23.000Z,17.71
2022-09-10T08:08:23.000Z,17.74
2022-09-10T08:09:23.000Z,17.76
2022-09-10T08:10:23.000Z,17.76
2022-09-10T08:11:23.000Z,17.85
2022-09-10T08:12:23.000Z,17.87
2022-09-10T08:13:23.000Z,17.85
2022-09-10T08:14:23.000Z,17.88
2022-09-10T08:15:23.000Z,17.92
2022-09-10T08:16:23.000Z,17.91
2022-09-10T08:17:23.000Z,17.85
2022-09-10T08:18:23.000Z,17.82
2022-09-10T08:19:23.000Z,17.79
2022-09-10T08:20:23.000Z,17.82
2022-09-10T08:21:23.000Z,17.84
2022-09-10T08:22:23.000Z,17.82
2022-09-10T08:23:23.000Z,17.87
2022-09-10T08:24:23.000Z,17.85
2022-09-10T08:25:23.000Z,17.89
2022-09-10T08:26:23.000Z,17.89
2022-09-10T08:27:23.000Z,17.91
2022-09-10T08:28:23.000Z,17.84
2022-09-10T08:29:23.000Z,17.81
2022-09-10T08:30:23.000Z,17.76
2022-09-10T08:31:23.000Z,17.78
2022-09-10T08:32:23.000Z,17.78
2022-09-10T08:33:23.000Z,17.82
2022-09-10T08:34:23.000Z,17.82
2022-09-10T08:35:23.000Z,17.82
2022-09-10T08:36:23.000Z,17.81
2022-09-10T08:37:23.000Z,17.79
2022-09-10T08:38:23.000Z,17.82
2022-09-10T08:39:23.000Z,17.85
2022-09-10T08:40:23.000Z,17.87
2022-09-10T08:41:23.000Z,17.94
2022-09-10T08:42:23.000Z,17.97
2022-09-10T08:43:23.000Z,17.97
2022-09-10T08:44:23.000Z,18.03
2022-09-10T08:45:23.000Z,18.06
2022-09-10T08:46:23.000Z,18.07
2022-09-10T08:47:23.000Z,18.09
2022-09-10T08:48:23.000Z,18.09
2022-09-10T08:49:23.000Z,18.06
2022-09-10T08:50:22.000Z,18.09
2022-09-10T08:51:22.000Z,18.07
2022-09-10T08:52:22.000Z,18.06
2022-09-10T08:53:22.000Z,18.12
2022-09-10T08:54:22.000Z,18.13
2022-09-10T08:55:22.000Z,18.19
2022-09-10T08:56:22.000Z,18.22
2022-09-10T08:57:22.000Z,18.29
2022-09-10T08:57:22.000Z,18.29
2022-09-10T08:58:22.000Z,18.39
2022-09-10T08:58:22.000Z,18.39
2022-09-10T08:59:22.000Z,18.50
2022-09-10T08:59:22.000Z,18.50
2022-09-10T09:00:22.000Z,18.58
2022-09-10T09:00:22.000Z,18.58
2022-09-10T09:01:22.000Z,18.67
2022-09-10T09:01:22.000Z,18.67
2022-09-10T09:02:22.000Z,18.74
2022-09-10T09:03:22.000Z,18.73
2022-09-10T09:04:22.000Z,18.72
2022-09-10T09:05:22.000Z,18.70
2022-09-10T09:06:22.000Z,18.73
2022-09-10T09:07:22.000Z,18.79
2022-09-10T09:08:22.000Z,18.70
2022-09-10T09:09:22.000Z,18.62
2022-09-10T09:10:22.000Z,18.54
2022-09-10T09:11:22.000Z,18.52
2022-09-10T09:12:22.000Z,18.43
2022-09-10T09:13:22.000Z,18.44
2022-09-10T09:14:22.000Z,18.44
2022-09-10T09:15:22.000Z,18.40
2022-09-10T09:16:22.000Z,18.37
2022-09-10T09:17:22.000Z,18.40
2022-09-10T09:18:22.000Z,18.44
2022-09-10T09:19:22.000Z,18.52
2022-09-10T09:20:22.000Z,18.58
2022-09-10T09:21:22.000Z,18.64
2022-09-10T09:22:22.000Z,18.73
2022-09-10T09:23:22.000Z,18.80
2022-09-10T09:24:22.000Z,18.92
2022-09-10T09:25:22.000Z,18.97
2022-09-10T09:26:22.000Z,19.06
2022-09-10T09:27:22.000Z,19.14
2022-09-10T09:28:22.000Z,19.21
2022-09-10T09:29:22.000Z,19.29
2022-09-10T09:30:22.000Z,19.39
2022-09-10T09:31:22.000Z,19.46
2022-09-10T09:32:22.000Z,19.57
2022-09-10T09:33:22.000Z,19.58
2022-09-10T09:34:22.000Z,19.61
2022-09-10T09:35:22.000Z,19.54
2022-09-10T09:36:22.000Z,19.48
2022-09-10T09:37:22.000Z,19.46
2022-09-10T09:38:22.000Z,19.43
2022-09-10T09:39:22.000Z,19.40
2022-09-10T09:40:22.000Z,19.40
2022-09-10T09:41:22.000Z,19.38
2022-09-10T09:42:22.000Z,19.39
2022-09-10T09:43:22.000Z,19.40
2022-09-10T09:44:22.000Z,19.40
2022-09-10T09:45:22.000Z,19.39
2022-09-10T09:46:22.000Z,19.47
2022-09-10T09:47:22.000Z,19.51
2022-09-10T09:48:22.000Z,19.54
2022-09-10T09:49:22.000Z,19.54
2022-09-10T09:50:22.000Z,19.55
2022-09-10T09:51:22.000Z,19.53
2022-09-10T09:52:22.000Z,19.54
2022-09-10T09:53:22.000Z,19.63
2022-09-10T09:54:22.000Z,19.69
2022-09-10T09:55:22.000Z,19.73
2022-09-10T09:56:22.000Z,19.84
2022-09-10T09:57:22.000Z,19.84
2022-09-10T09:58:22.000Z,19.86
2022-09-10T09:59:22.000Z,19.90
2022-09-10T10:00:22.000Z,19.93
2022-09-10T10:01:22.000Z,19.91
2022-09-10T10:02:22.000Z,19.90
2022-09-10T10:03:22.000Z,19.91
2022-09-10T10:04:22.000Z,19.83
2022-09-10T10:05:22.000Z,19.80
2022-09-10T10:06:22.000Z,19.86
2022-09-10T10:07:22.000Z,19.88
2022-09-10T10:08:22.000Z,19.88
2022-09-10T10:09:22.000Z,19.93
2022-09-10T10:10:22.000Z,19.97
2022-09-10T10:11:21.000Z,20.06
2022-09-10T10:12:21.000Z,20.13
2022-09-10T10:13:21.000Z,20.15
2022-09-10T10:14:21.000Z,20.15
2022-09-10T10:15:21.000Z,20.16
2022-09-10T10:16:21.000Z,20.15
2022-09-10T10:17:21.000Z,20.18
2022-09-10T10:18:21.000Z,20.21
2022-09-10T10:19:21.000Z,20.15
2022-09-10T10:20:21.000Z,20.05
2022-09-10T10:21:21.000Z,19.97
2022-09-10T10:22:21.000Z,19.95
2022-09-10T10:23:21.000Z,19.93
2022-09-10T10:24:21.000Z,19.87
2022-09-10T10:25:21.000Z,19.88
2022-09-10T10:26:21.000Z,19.87
2022-09-10T10:27:21.000Z,19.72
2022-09-10T10:28:21.000Z,19.75
2022-09-10T10:29:21.000Z,19.73
2022-09-10T10:30:21.000Z,19.72
2022-09-10T10:31:21.000Z,19.78
2022-09-10T10:32:21.000Z,19.83
2022-09-10T10:33:21.000Z,19.90
2022-09-10T10:34:21.000Z,20.00
2022-09-10T10:35:21.000Z,20.05
2022-09-10T10:36:21.000Z,20.16
2022-09-10T10:37:21.000Z,20.24
2022-09-10T10:38:21.000Z,20.31
2022-09-10T10:39:21.000Z,20.33
2022-09-10T10:40:21.000Z,20.38
2022-09-10T10:41:21.000Z,20.42
2022-09-10T10:42:21.000Z,20.47
2022-09-10T10:43:21.000Z,20.56
2022-09-10T10:44:21.000Z,20.58
2022-09-10T10:45:21.000Z,20.58
2022-09-10T10:46:21.000Z,20.64
2022-09-10T10:47:21.000Z,20.64
2022-09-10T10:48:21.000Z,20.64
2022-09-10T10:49:21.000Z,20.59
2022-09-10T10:50:21.000Z,20.56
2022-09-10T10:51:21.000Z,20.51
2022-09-10T10:52:21.000Z,20.46
2022-09-10T10:53:21.000Z,20.30
2022-09-10T10:54:21.000Z,20.21
2022-09-10T10:55:20.000Z,20.12
2022-09-10T10:56:20.000Z,20.05
2022-09-10T10:57:20.000Z,20.03
2022-09-10T10:58:20.000Z,20.09
2022-09-10T10:59:20.000Z,20.15
2022-09-10T11:00:20.000Z,20.21
2022-09-10T11:01:20.000Z,20.31
2022-09-10T11:02:20.000Z,20.33
2022-09-10T11:03:20.000Z,20.42
2022-09-10T11:04:20.000Z,20.54
2022-09-10T11:05:20.000Z,20.64
2022-09-10T11:06:20.000Z,20.66
2022-09-10T11:07:20.000Z,20.65
2022-09-10T11:08:20.000Z,20.56
2022-09-10T11:09:20.000Z,20.53
2022-09-10T11:10:20.000Z,20.49
2022-09-10T11:11:20.000Z,20.43
2022-09-10T11:12:20.000Z,20.43
2022-09-10T11:13:20.000Z,20.38
2022-09-10T11:14:20.000Z,20.35
2022-09-10T11:15:20.000Z,20.28
2022-09-10T11:16:20.000Z,20.23
2022-09-10T11:17:20.000Z,20.16
2022-09-10T11:18:20.000Z,20.09
2022-09-10T11:19:20.000Z,20.02
2022-09-10T11:20:20.000Z,19.97
2022-09-10T11:21:20.000Z,19.93
2022-09-10T11:22:20.000Z,19.93
2022-09-10T11:23:20.000Z,19.91
2022-09-10T11:24:20.000Z,19.97
2022-09-10T11:25:20.000Z,19.97
2022-09-10T11:26:20.000Z,20.03
2022-09-10T11:27:20.000Z,20.05
2022-09-10T11:28:20.000Z,20.09
2022-09-10T11:29:20.000Z,20.08
2022-09-10T11:30:20.000Z,20.06
2022-09-10T11:31:20.000Z,20.06
2022-09-10T11:32:20.000Z,20.05
2022-09-10T11:33:20.000Z,20.03
2022-09-10T11:34:20.000Z,20.05
2022-09-10T11:35:20.000Z,20.05
2022-09-10T11:36:20.000Z,20.09
2022-09-10T11:37:20.000Z,20.10
2022-09-10T11:38:19.000Z,20.13
2022-09-10T11:39:19.000Z,20.15
2022-09-10T11:40:19.000Z,20.18
2022-09-10T11:41:19.000Z,20.25
2022-09-10T11:42:19.000Z,20.33
2022-09-10T11:43:19.000Z,20.39
2022-09-10T11:44:19.000Z,20.43
2022-09-10T11:45:19.000Z,20.47
2022-09-10T11:46:19.000Z,20.49
2022-09-10T11:47:19.000Z,20.54
2022-09-10T11:48:19.000Z,20.56
2022-09-10T11:49:19.000Z,20.64
2022-09-10T11:50:19.000Z,20.64
2022-09-10T11:51:19.000Z,20.71
2022-09-10T11:52:19.000Z,20.71
2022-09-10T11:53:19.000Z,20.72
2022-09-10T11:54:19.000Z,20.72
2022-09-10T11:55:19.000Z,20.74
2022-09-10T11:56:19.000Z,20.80
2022-09-10T11:57:19.000Z,20.86
2022-09-10T11:58:19.000Z,20.90
2022-09-10T11:59:19.000Z,21.05
2022-09-10T12:00:19.000Z,21.14
2022-09-10T12:01:19.000Z,21.21
2022-09-10T12:02:19.000Z,21.34
2022-09-10T12:03:19.000Z,21.48
2022-09-10T12:04:19.000Z,21.66
2022-09-10T12:05:19.000Z,21.75
2022-09-10T12:06:19.000Z,21.83
2022-09-10T12:07:19.000Z,21.92
2022-09-10T12:08:19.000Z,21.92
2022-09-10T12:09:19.000Z,21.99
2022-09-10T12:10:19.000Z,21.98
2022-09-10T12:11:19.000Z,21.91
2022-09-10T12:12:19.000Z,21.72
2022-09-10T12:13:19.000Z,21.61
2022-09-10T12:14:19.000Z,21.56
2022-09-10T12:15:18.000Z,21.45
2022-09-10T12:16:18.000Z,21.38
2022-09-10T12:17:18.000Z,21.32
2022-09-10T12:18:18.000Z,21.26
2022-09-10T12:19:18.000Z,21.17
2022-09-10T12:20:18.000Z,21.09
2022-09-10T12:21:18.000Z,21.06
2022-09-10T12:22:18.000Z,20.96
2022-09-10T12:23:18.000Z,20.83
2022-09-10T12:24:18.000Z,20.62
2022-09-10T12:25:18.000Z,20.51
2022-09-10T12:26:18.000Z,20.42
2022-09-10T12:27:18.000Z,20.31
2022-09-10T12:28:18.000Z,20.24
2022-09-10T12:29:18.000Z,20.12
2022-09-10T12:30:18.000Z,20.08
2022-09-10T12:31:18.000Z,19.90
2022-09-10T12:32:18.000Z,19.83
2022-09-10T12:33:18.000Z,19.72
2022-09-10T12:34:18.000Z,19.55
2022-09-10T12:35:18.000Z,19.33
2022-09-10T12:36:18.000Z,19.13
2022-09-10T12:37:18.000Z,18.86
2022-09-10T12:38:18.000Z,18.49
2022-09-10T12:39:18.000Z,18.13
2022-09-10T12:40:18.000Z,17.69
2022-09-10T12:41:18.000Z,17.44
2022-09-10T12:42:18.000Z,17.28